Aviation Digital Data Service (ADDS)

Output produced by METARs form (1920 UTC 18 June 2019)
found at http://www.aviationweather.gov/metar/data/
 
LFLB 181900Z AUTO VRB02KT CAVOK 23/18 Q1013 NOSIG
TAF LFLB 181100Z 1812/1912 VRB04KT CAVOK
       
LFBZ 181900Z AUTO 27014KT 220V290 9999 OVC006 18/17 Q1010 TEMPO 28020G40KT
TAF LFBZ 181700Z 1818/1918 28010KT CAVOK 
     TEMPO 1818/1823 28015G25KT BKN006 
     PROB40 
     TEMPO 1818/1822 28020G40KT 
     BECMG 1901/1903 VRB03KT SCT020 
     BECMG 1909/1911 36010KT 
     PROB30 
     TEMPO 1914/1916 36015G25KT 
     BECMG 1916/1918 BKN040
       
LFRT 181900Z AUTO 04003KT 360V070 CAVOK 16/14 Q1009
LFRM 181900Z AUTO 14005KT CAVOK 28/14 Q1007 TEMPO VRB15G30KT 3000 TSRA BKN060CB
TAF LFRM 181700Z 1818/1918 14006KT CAVOK 
     TEMPO 1818/1906 SHRA SCT060CB 
     PROB30 
     TEMPO 1818/1822 VRB15G30KT 3000 TSRA BKN060CB 
     BECMG 1907/1909 23010KT 
     PROB30 
     TEMPO 1910/1918 23015G25KT SHRA FEW025CB BKN030TCU
       
LFLW 181900Z AUTO 11005KT CAVOK 24/05 Q1013
TAF LFLW 181400Z 1815/1824 15012KT CAVOK
       
LFLC 181900Z AUTO 18010KT CAVOK 28/10 Q1010 NOSIG
TAF LFLC 181400Z 1815/1915 08005KT CAVOK 
     BECMG 1819/1821 18010G20KT 
     BECMG 1823/1901 VRB02KT 
     BECMG 1913/1915 SCT050CB
       
LFOA 181900Z AUTO 13005KT CAVOK 25/16 Q1009 NOSIG
TAF LFOA 181400Z 1815/1915 11005KT CAVOK 
     BECMG 1823/1901 25010KT 
     PROB40 
     TEMPO 1823/1907 VRB15G35KT 4000 SHRA SCT080TCU 
     PROB30 
     TEMPO 1900/1906 VRB30G50KT 2000 TSRAGR BKN010 BKN080CB 
     TEMPO 1911/1915 24015G25KT 4000 SHRA BKN040TCU
       
LFSB 181900Z 31002KT CAVOK 25/18 Q1013 NOSIG
TAF LFSB 181700Z 1818/1918 VRB04KT CAVOK 
     TEMPO 1818/1820 FEW060TCU 
     BECMG 1910/1912 29008KT FEW070TCU 
     TEMPO 1912/1918 FEW060CB 
     PROB40 
     TEMPO 1912/1918 29012G22KT
       
LFQB 181900Z AUTO 06004KT CAVOK 26/19 Q1010
LFBL 181900Z AUTO 23004KT CAVOK 26/15 Q1011 TEMPO 17010KT SCT090TCU
TAF LFBL 181700Z 1818/1918 17010KT CAVOK 
     TEMPO 1820/1822 VRB03KT SCT090TCU 
     PROB30 
     TEMPO 1822/1902 VRB20KT 4000 TSRA SCT015 BKN040CB 
     BECMG 1904/1906 25008KT 
     BECMG 1910/1912 BKN030
       
LFBI 181900Z AUTO 22005KT CAVOK 27/17 Q1008 NOSIG
TAF LFBI 181700Z 1818/1918 22010KT CAVOK 
     TEMPO 1821/1903 -SHRA BKN080TCU 
     PROB30 
     TEMPO 1822/1824 VRB25G45KT 4000 TSRAGR SCT015 BKN070CB 
     PROB30 
     TEMPO 1912/1915 -SHRA BKN040TCU
       
LFBO 181900Z AUTO 13012KT CAVOK 28/11 Q1009 NOSIG
TAF LFBO 181700Z 1818/1924 14014KT CAVOK 
     BECMG 1823/1901 26010KT 
     BECMG 1902/1903 OVC013 
     BECMG 1908/1909 VRB02KT CAVOK 
     FM191600 32008KT 9999 SCT065TCU 
     PROB30 
     TEMPO 1921/1924 32020KT TSRA BKN045TCU
       
LFMH 181900Z AUTO 18011KT CAVOK 25/04 Q1013 NOSIG
TAF LFMH 181400Z 1815/1915 17012KT CAVOK 
     BECMG 1823/1901 VRB02KT 
     BECMG 1912/1914 SCT050CB
       
LFAQ 181900Z AUTO 09006KT CAVOK 23/17 Q1010
TAF LFAQ 181400Z 1815/1824 10008KT CAVOK 
     TEMPO 1822/1824 VRB15G25KT -SHRA BKN080CB 
     PROB30 
     TEMPO 1822/1824 VRB20G40KT 2000 TSRAGR BKN060CB 
       
LFOJ 181900Z AUTO 13004KT CAVOK 26/17 Q1008 NOSIG
TAF LFOJ 181400Z 1815/1915 13010KT CAVOK 
     BECMG 1900/1901 22020G35KT 
     TEMPO 1901/1905 4000 -SHRA BKN060CB 
     PROB40 
     TEMPO 1901/1904 22025G45KT 2000 TSRAGR BKN060CB 
     BECMG 1905/1907 24015G25KT 
     TEMPO 1912/1915 4000 SHRA BKN040TCU
       
LFBU 181900Z AUTO VRB03KT CAVOK 28/16 Q1008 NOSIG
TAF LFBU 181700Z 1818/1918 18005KT CAVOK 
     TEMPO 1821/1903 -SHRA BKN080TCU 
     PROB30 
     TEMPO 1821/1824 VRB25G40KT 4000 TSRAGR SCT015 BKN050CB 
     BECMG 1908/1910 27010KT BKN025 
     BECMG 1916/1918 CAVOK
       
LFLY 181900Z AUTO 17008KT CAVOK 27/11 Q1012 NOSIG
TAF LFLY 181700Z 1818/1918 18012KT CAVOK 
     PROB30 
     TEMPO 1903/1907 RA 
     PROB30 
     TEMPO 1915/1918 SHRA SCT060TCU BKN100 
     TEMPO 1908/1918 18015G25KT
       
LFKJ 181900Z AUTO 18004KT CAVOK 23/18 Q1014 NOSIG
TAF LFKJ 181400Z 1815/1915 20012KT CAVOK 
     BECMG 1819/1821 04003KT 
     PROB30 
     TEMPO 1903/1906 BKN005 
     BECMG 1908/1910 22010KT
       
LFMO 181900Z AUTO 22008KT CAVOK 25/10 Q1014 NOSIG
TAF LFMO 181400Z 1815/1915 20010KT CAVOK 
     BECMG 1818/1820 VRB02KT 
     BECMG 1910/1912 18010KT
       
LFRK 181900Z AUTO 30010KT 260V340 9999 -TSRA ///CB 17/16 Q1008 TEMPO 09015G30KT 4000 TSRA
TAF LFRK 181400Z 1815/1824 01008KT CAVOK 
     TEMPO 1815/1824 4000 SHRA BKN060CB 
     PROB40 
     TEMPO 1815/1824 09015G30KT 4000 TSRA BKN060CB 
     PROB30 
     TEMPO 1815/1824 TSRAGR
       
LFMV 181900Z AUTO 18006KT CAVOK 23/11 Q1014 NOSIG
TAF AMD LFMV 181901Z 1819/1915 19010G20KT CAVOK 
     BECMG 1819/1820 17010KT 
     BECMG 1820/1821 13010KT 
     BECMG 1908/1910 17010G20KT
       
LFBC 181900Z AUTO 31007KT CAVOK 26/11 Q1007 TEMPO VRB15G25KT 3000 TSRA BKN010 BKN080CB
TAF LFBC 181400Z 1815/1915 22010KT CAVOK 
     BECMG 1815/1817 32005KT 
     PROB40 
     TEMPO 1819/1901 4000 SHRA SCT010 BKN090TCU 
     PROB30 
     TEMPO 1820/1822 VRB15G25KT 3000 TSRA BKN010 BKN080CB 
     TEMPO 1905/1908 4000 DZRA BKN008 
     TEMPO 1910/1912 BKN040TCU
       
LFLU 181800Z AUTO 19009KT CAVOK 27/09 Q1012
LFPG 181900Z 11009KT 080V140 CAVOK 26/15 Q1009 NOSIG
TAF LFPG 181700Z 1818/1924 13010KT CAVOK TX27/1818Z TN19/1904Z 
     PROB40 
     TEMPO 1821/1906 -SHRA SCT060TCU 
     PROB30 1822/1903 25015G40KT 3000 TSRAGR SCT050CB 
     BECMG 1906/1908 25010KT 
     PROB40 
     TEMPO 1912/1924 3000 SHRA SCT050TCU 
     PROB30 1916/1918 29015G30KT TSRAGR SCT030CB
       
LFBG 181900Z AUTO 17003KT CAVOK 29/17 Q1008 BECMG 30010KT
TAF LFBG 181400Z 1815/1915 21010KT CAVOK 
     BECMG 1819/1821 30010KT 
     TEMPO 1821/1901 VRB20G35KT 3000 TSRA BKN080CB
       
LFOC 181900Z AUTO 14005KT CAVOK 25/18 Q1008
TAF LFOC 181400Z 1815/1915 12010KT CAVOK 
     PROB30 
     TEMPO 1820/1823 34015G25KT 5000 -SHRA SCT080CB 
     TEMPO 1900/1905 21020G30KT 3000 SHRA SCT035 BKN070CB 
     PROB40 
     TEMPO 1901/1904 21025G40KT 1500 TSRA BKN010 SCT035 BKN060CB 
     BECMG 1907/1909 23015G25KT 
     TEMPO 1911/1915 5000 SHRA BKN040TCU
       
LFPT 181900Z AUTO 13006KT CAVOK 25/14 Q1008
LFMN 181900Z 21004KT CAVOK 23/19 Q1014 NOSIG
TAF AMD LFMN 181640Z 1816/1921 10004KT CAVOK 
     BECMG 1820/1822 33010KT 
     TEMPO 1903/1914 10005KT BKN010
       
LFLX 181900Z AUTO 20004KT CAVOK 27/17 Q1008 NOSIG
TAF LFLX 181700Z 1818/1924 VRB04KT CAVOK 
     PROB40 
     TEMPO 1822/1902 VRB20G45KT 3000 TSRAGS BKN060CB 
     BECMG 1902/1904 24010KT 
     PROB30 
     TEMPO 1911/1919 -SHRA SCT040CB
       
LFOV 181900Z AUTO 19005KT 9999 ///CB 26/17 Q1006
LFST 181900Z AUTO 00000KT CAVOK 28/16 Q1012 NOSIG
TAF LFST 181700Z 1818/1918 VRB03KT CAVOK 
     BECMG 1906/1910 18010KT FEW050CB
       
LFSN 181900Z AUTO 14004KT CAVOK 25/16 Q1012
LFOE 181900Z AUTO 10005KT CAVOK 26/15 Q1008 TEMPO VRB25G45KT 1000 TSRAGR BKN050CB
TAF LFOE 181400Z 1815/1915 09005KT CAVOK 
     BECMG 1815/1817 SCT060CB 
     TEMPO 1815/1818 12015G30KT 3000 SHRA SCT020 BKN060CB 
     PROB40 
     TEMPO 1815/1905 VRB20G35KT 1000 TSRAGR BKN050CB 
     PROB40 
     TEMPO 1818/1905 VRB25G45KT 
     BECMG 1907/1909 27010KT 
     TEMPO 1909/1915 4000 SHRA BKN030CB
       
LFQG 181800Z AUTO 12006KT 090V150 CAVOK 29/13 Q1010
LFTW 181900Z AUTO 16006KT CAVOK 23/11 Q1014 NOSIG
TAF AMD LFTW 181901Z 1819/1915 18012KT CAVOK 
     BECMG 1820/1822 11010KT 
     BECMG 1907/1909 17012KT
       
LFRB 181900Z AUTO VRB03KT CAVOK 18/16 Q1009 TEMPO 1200 TSRA BKN012CB
TAF LFRB 181700Z 1818/1924 10006KT 9999 SCT018 
     TEMPO 1818/1916 4000 SHRA BKN014 
     PROB30 
     TEMPO 1818/1906 1200 TSRA BKN012CB
       
LFGA 181900Z AUTO VRB01KT CAVOK 26/15 Q1012
LFBH 181900Z AUTO 30005KT 250V330 CAVOK 22/17 Q1008 TEMPO BKN006
TAF LFBH 181700Z 1818/1918 24010KT CAVOK 
     BECMG 1818/1820 32010KT 
     PROB30 
     TEMPO 1820/1824 BKN006 
     TEMPO 1902/1908 -SHRA BKN060TCU 
     PROB40 
     TEMPO 1908/1912 BKN010 BKN060TCU 
     BECMG 1916/1918 BKN015
       
LFBA 181900Z AUTO 11005KT CAVOK 29/16 Q1008 TEMPO 14015G35KT 4000 TSRA BKN010 BKN040CB
TAF LFBA 181400Z 1815/1824 13007KT CAVOK 
     PROB30 
     TEMPO 1819/1824 SHRA SCT050TCU 
     PROB30 
     TEMPO 1819/1821 14015G35KT 4000 TSRA BKN010 BKN040CB 
       
LFRJ 181900Z AUTO 05004KT 9000 NSC 17/16 Q1009
TAF LFRJ 181400Z 1815/1824 05006KT CAVOK 
     TEMPO 1815/1824 5000 RA BKN050TCU OVC090 
     PROB30 
     TEMPO 1815/1818 TSRA SCT050CB 
     TEMPO 1821/1824 4000 RA SCT050CB OVC080 
     BECMG 1821/1823 SCT005
       
LFRH 181900Z AUTO 02008KT 9999 SCT032 BKN052 OVC120 21/17 Q1008 TEMPO TSRA SCT045CB BKN055
TAF LFRH 181700Z 1818/1918 26008KT CAVOK 
     TEMPO 1818/1823 SHRA SCT055CB 
     PROB30 
     TEMPO 1818/1822 VRB10G20KT TSRA SCT045CB BKN055 
     BECMG 1900/1902 34010KT BKN020 
     TEMPO 1904/1907 3000 -DZ BKN005 OVC008 
     BECMG 1907/1909 25010KT BKN025 
     TEMPO 1909/1917 SHRA SCT020CB
       
LFRO 181900Z AUTO VRB03KT 9000 FEW004 OVC120 15/14 Q1009
LFPB 181900Z AUTO 10009KT CAVOK 26/16 Q1009 NOSIG
TAF LFPB 181700Z 1818/1918 12010KT CAVOK 
     PROB40 
     TEMPO 1821/1906 -SHRA SCT060TCU 
     PROB30 1822/1903 25015G40KT 3000 TSRAGR SCT050CB 
     BECMG 1906/1908 25010KT 
     PROB40 
     TEMPO 1912/1918 3000 SHRA SCT050TCU 
     PROB30 1916/1918 29015G30KT TSRAGR SCT030CB
       
LFMC 181900Z AUTO VRB03KT 9999 ////// 28/07 Q1014
LFTH 181900Z AUTO 21006KT 180V240 CAVOK 24/12 Q1014 NOSIG
TAF LFTH 181400Z 1815/1915 23010KT CAVOK 
     TEMPO 1821/1906 VRB03KT
       
LFAT 181900Z AUTO 06003KT 020V090 CAVOK 22/18 Q1009
TAF LFAT 181400Z 1815/1824 12008KT CAVOK 
     TEMPO 1816/1824 VRB15G25KT -SHRA BKN080CB 
     PROB30 
     TEMPO 1819/1824 VRB20G40KT 2000 TSRAGR BKN060CB 
       
LFMI 181900Z AUTO 14004KT CAVOK 23/14 Q1014 NOSIG
TAF LFMI 181400Z 1815/1915 17013KT CAVOK 
     BECMG 1820/1821 10010KT 
     BECMG 1906/1907 13010KT 
     BECMG 1908/1909 17013KT
       
LFRI 181900Z AUTO 22005KT 190V250 CAVOK 23/15 Q1008 NOSIG
TAF AMD LFRI 181822Z 1818/1918 23008KT CAVOK 
     TEMPO 1900/1912 -SHRA SCT050TCU 
     PROB30 
     TEMPO 1903/1908 -SHRA BKN010 SCT040TCU
       
LFQQ 181900Z AUTO 09004KT CAVOK 25/15 Q1010 NOSIG
TAF LFQQ 181700Z 1818/1924 12005KT CAVOK 
     PROB30 
     TEMPO 1823/1901 VRB15G35KT 2000 TSRA BKN080CB 
     PROB30 
     TEMPO 1914/1917 VRB15G35KT 2000 TSRAGR BKN080CB
       
LFSD 181900Z AUTO 12005KT CAVOK 24/18 Q1011
LFHP 181900Z AUTO 16004KT 120V190 CAVOK 21/05 Q1016
LFBT 181900Z AUTO VRB02KT CAVOK 28/17 Q1009 TEMPO 14015G40KT 4000 TSRA SCT010 BKN050CB
TAF LFBT 181700Z 1818/1918 05008KT CAVOK 
     PROB30 
     TEMPO 1818/1821 14015G40KT 4000 TSRA SCT010 BKN050CB 
     BECMG 1821/1823 28010KT 
     PROB30 
     TEMPO 1821/1824 28015G30KT 
     BECMG 1908/1910 36005KT 
     BECMG 1913/1915 BKN040 
     PROB30 
     TEMPO 1916/1918 36015G30KT 4000 TSRA BKN040CB
       
LFMD 181900Z AUTO VRB01KT CAVOK 24/17 Q1013 NOSIG
TAF LFMD 181400Z 1815/1915 15007KT CAVOK 
     BECMG 1817/1819 VRB03KT 
     PROB40 
     TEMPO 1906/1911 BKN010
       
LFJR 181900Z AUTO 20008KT CAVOK 28/17 Q1007
LFCR 181900Z AUTO 12012KT CAVOK 24/07 Q1013 NOSIG
TAF LFCR 181700Z 1818/1918 14013KT CAVOK 
     BECMG 1902/1904 16005KT 
     BECMG 1909/1911 29007KT
       
LFRC 181900Z AUTO 05007KT 9999 BKN047 BKN058 BKN080 15/13 Q1009
TAF LFRC 181400Z 1815/1824 05010KT 9999 SCT040 
     TEMPO 1815/1824 4000 SHRA BKN060CB 
     PROB30 
     TEMPO 1815/1824 03015G30KT 4000 TSRA BKN060CB 
     PROB30 
     TEMPO 1815/1824 TSRAGR
       
LFCK 181900Z AUTO 12023KT CAVOK 26/11 Q1010 NOSIG
TAF LFCK 181700Z 1818/1903 12018KT CAVOK 
     BECMG 1901/1903 12006KT
       
LFMT 181900Z AUTO 11004KT 080V150 CAVOK 22/15 Q1013 NOSIG
TAF LFMT 181400Z 1815/1915 15010KT CAVOK 
     BECMG 1820/1822 05010KT 
     PROB30 
     TEMPO 1905/1908 BKN010 
     BECMG 1908/1910 14010KT
       
LFBD 181900Z AUTO 35004KT 340V050 CAVOK 31/09 Q1007 TEMPO VRB25G35KT 4000 TSRA SCT015 BKN070CB
TAF LFBD 181700Z 1818/1924 32010KT CAVOK TX32/1818Z TN17/1904Z 
     PROB40 
     TEMPO 1819/1901 -SHRA BKN080TCU 
     PROB30 
     TEMPO 1819/1821 VRB25G35KT 4000 TSRA SCT015 BKN070CB 
     BECMG 1904/1906 BKN040 
     BECMG 1915/1918 CAVOK 
     BECMG 1921/1923 BKN010
       
LFJL 181900Z AUTO 17003KT CAVOK 26/16 Q1012 NOSIG
TAF LFJL 181700Z 1818/1918 16005KT CAVOK 
     BECMG 1906/1910 24010KT FEW050CB 
     BECMG 1914/1916 -SHRA SCT080CB 
     TEMPO 1916/1918 VRB20G40KT 1500 +TSRAGR BKN080CB
       
LFRV 181900Z AUTO VRB03KT 9999 BKN018 OVC150 22/18 Q1008
LFLP 181900Z AUTO 26002KT CAVOK 24/15 Q1014 NOSIG
TAF LFLP 181400Z 1815/1915 22005KT CAVOK
       
LFSG 181900Z AUTO 14003KT CAVOK 24/16 Q1012
LFBM 181900Z AUTO 09007KT CAVOK 29/17 Q1006 TEMPO 27010G20KT TS BKN080TCU BKN090CB
TAF LFBM 181400Z 1815/1915 20010KT CAVOK 
     TEMPO 1816/1822 27010G20KT TS BKN080TCU BKN090CB 
     BECMG 1823/1901 30005KT OVC010 
     BECMG 1912/1914 BKN050TCU
       
LFRZ 181900Z AUTO 22008KT 9999 BKN002 16/15 Q1008 BECMG NSC
TAF AMD LFRZ 181917Z 1819/1918 24008KT 9999 SCT020 
     TEMPO 1819/1824 BKN002 
     TEMPO 1900/1912 -SHRA BKN020TCU 
     PROB30 
     TEMPO 1900/1909 -SHRA BKN010 SCT050TCU 
     PROB30 
     TEMPO 1912/1918 24015G25KT -SHRA SCT020TCU
       
LFRS 181900Z AUTO 23006KT 200V260 CAVOK 23/15 Q1008 NOSIG
TAF LFRS 181700Z 1818/1924 26008KT CAVOK 
     PROB30 
     TEMPO 1822/1824 BKN003 
     TEMPO 1900/1912 -SHRA SCT050TCU 
     PROB30 
     TEMPO 1904/1909 -SHRA BKN010 SCT040TCU 
     PROB30 
     TEMPO 1912/1918 24015G25KT -SHRA SCT020TCU 
     TEMPO 1918/1924 -SHRA BKN010 SCT020TCU
       
LFSO 181900Z AUTO 14004KT CAVOK 24/16 Q1013 NOSIG
TAF LFSO 181400Z 1815/1915 19005KT CAVOK 
     BECMG 1905/1908 20010G20KT
       
LFOH 181900Z AUTO 09005KT CAVOK 24/17 Q1008
TAF LFOH 181100Z 1812/1912 11010KT CAVOK 
     TEMPO 1812/1815 SHRA BKN100CB 
     PROB40 
     TEMPO 1813/1815 TSRA 
     PROB30 
     TEMPO 1818/1905 VRB20G35KT 2000 TSRAGR BKN080CB 
     BECMG 1907/1909 22010KT
       
LFPO 181900Z 10007KT CAVOK 26/18 Q1009 NOSIG
TAF LFPO 181700Z 1818/1924 12010G20KT CAVOK 
     PROB40 
     TEMPO 1822/1906 VRB15G30KT -SHRA BKN050CB 
     PROB30 
     TEMPO 1823/1906 VRB20G40KT 1500 TSRAGR SCT040 BKN050CB 
     TEMPO 1906/1924 22010G25KT SHRA BKN040TCU 
     PROB30 
     TEMPO 1914/1918 22015G30KT 3000 TSRA BKN040CB
       
LFBP 181900Z AUTO 09004KT 050V120 CAVOK 29/17 Q1007 TEMPO 28015G40KT 4000 TSRA BKN005 BKN050CB
TAF LFBP 181700Z 1818/1918 05007KT CAVOK 
     BECMG 1819/1821 28010KT 
     PROB30 
     TEMPO 1819/1902 BKN007 
     PROB30 
     TEMPO 1819/1822 28015G40KT 4000 TSRA BKN005 BKN050CB 
     BECMG 1902/1904 VRB03KT 
     BECMG 1913/1915 34006KT BKN040
       
LFRD 181900Z AUTO 01008KT CAVOK 17/15 Q1008 NOSIG
TAF LFRD 181700Z 1818/1918 32010KT CAVOK 
     TEMPO 1823/1909 5000 SHRA BKN050TCU 
     PROB30 
     TEMPO 1900/1906 VRB15G30KT 4000 TSRA BKN030CB 
     PROB30 
     TEMPO 1900/1906 TSRAGR 
     TEMPO 1902/1910 BKN007 
     TEMPO 1912/1918 5000 SHRA BKN015TCU 
     TEMPO 1915/1918 BKN010
       
LFRU 181900Z AUTO VRB02KT CAVOK 18/16 Q1009
LFRQ 181900Z AUTO 35006KT 9999 FEW038 OVC110 20/17 Q1009 TEMPO 1300 TSRA BKN013CB
TAF LFRQ 181700Z 1818/1918 05005KT 9999 SCT025 
     TEMPO 1818/1917 3000 SHRA BKN013 
     PROB30 
     TEMPO 1818/1907 1300 TSRA BKN013CB
       
LFKB 181900Z AUTO 06002KT CAVOK 23/15 Q1014 NOSIG
TAF LFKB 181400Z 1815/1915 11006KT CAVOK TX28/1912Z TN18/1903Z 
     BECMG 1819/1821 24004KT 
     BECMG 1907/1909 11010KT
       
LFRL 181900Z AUTO 02004KT CAVOK 18/15 Q1009 TEMPO SHRA BKN060CB
TAF LFRL 181100Z 1812/1912 07010KT CAVOK 
     TEMPO 1812/1821 07010G20KT SHRA BKN070TCU 
     PROB30 
     TEMPO 1812/1821 BKN060CB 
     BECMG 1821/1824 32005KT 3000 -RA BKN005 
     TEMPO 1903/1906 1000 RA BKN002 
     BECMG 1910/1912 BKN010
       
LFML 181900Z AUTO 18005KT 9999 FEW011 24/11 Q1014 NOSIG
TAF LFML 181400Z 1815/1921 19012KT CAVOK TX30/1815Z TN18/1903Z 
     BECMG 1819/1820 VRB05KT 
     BECMG 1900/1901 09005KT 
     BECMG 1907/1908 17012KT 
     BECMG 1919/1920 VRB05KT
       
LFQA 181900Z AUTO 09003KT CAVOK 22/18 Q1010
LFMP 181900Z AUTO 07005KT 040V100 9999 NCD 22/17 Q1010 NOSIG
TAF LFMP 181400Z 1815/1915 04010KT CAVOK 
     BECMG 1820/1822 VRB04KT 
     BECMG 1911/1913 12010KT
       
LFSI 181900Z AUTO 11004KT CAVOK 26/17 Q1011
TAF LFSI 181400Z 1815/1915 13005KT CAVOK 
     TEMPO 1903/1907 VRB10G25KT SHRA BKN040TCU BKN100 
     TEMPO 1912/1915 VRB15G25KT 4000 SHRA BKN045TCU BKN100 
     PROB40 
     TEMPO 1914/1915 VRB15G35KT 3000 TSRA BKN045CB BKN100
       
LFBE 181900Z AUTO 10003KT CAVOK 28/18 Q1008 TEMPO VRB25G40KT 4000 TSRAGR SCT015 BKN050CB
TAF AMD LFBE 181512Z 1815/1912 15010KT CAVOK 
     TEMPO 1820/1824 VRB15G25KT SHRA BKN080TCU 
     PROB40 
     TEMPO 1820/1824 VRB25G40KT 4000 TSRAGR SCT015 BKN050CB 
     BECMG 1903/1905 30008KT 
     BECMG 1908/1910 BKN020 
       
LFKC 181900Z AUTO VRB03KT CAVOK 23/13 Q1015 NOSIG
TAF LFKC 181400Z 1815/1915 01012KT CAVOK TX30/1912Z TN15/1904Z 
     BECMG 1819/1821 18004KT 
     BECMG 1908/1910 27010KT
       
LFLL 181900Z 16009KT CAVOK 27/09 Q1012 NOSIG
TAF LFLL 181700Z 1818/1924 18010KT CAVOK 
     TEMPO 1818/1912 18015G25KT 
     TEMPO 1912/1918 18018G30KT 
     BECMG 1918/1921 34008KT 
     PROB30 
     TEMPO 1918/1924 30020G35KT 4000 TSRA SCT050 BKN060CB
       
LFLS 181900Z AUTO 28007KT 250V310 CAVOK 24/10 Q1014 NOSIG
TAF LFLS 181400Z 1815/1915 22005KT CAVOK
       
LFSX 181900Z AUTO 13004KT CAVOK 24/17 Q1012
TAF LFSX 181400Z 1815/1915 13006KT CAVOK 
     FM191400 24010KT 9999 FEW060TCU
       
LFLN 181900Z AUTO 12006KT CAVOK 25/14 Q1010 NOSIG
TAF LFLN 181700Z 1818/1903 14008KT CAVOK 
     PROB40 
     TEMPO 1900/1903 26012G22KT -SHRA SCT110TCU
       
LFMY 181900Z AUTO VRB02KT CAVOK 24/12 Q1014
TAF LFMY 181400Z 1815/1915 20012KT CAVOK 
     BECMG 1818/1821 VRB02KT 
     BECMG 1904/1907 11010KT 
     BECMG 1908/1909 18015KT
       
LFMK 181900Z AUTO 10011KT 070V150 CAVOK 22/14 Q1011
TAF LFMK 181400Z 1815/1915 09012KT CAVOK 
     TEMPO 1815/1819 09020G30KT 
     TEMPO 1819/1824 09015G25KT 
     BECMG 1902/1904 28010KT
       
LFKS 181900Z AUTO VRB02KT CAVOK 25/18 Q1014
TAF LFKS 181400Z 1815/1915 10005KT 9999 FEW095
       
LFOZ 181900Z AUTO 10003KT CAVOK 26/18 Q1009
LFRG 181900Z AUTO 07003KT 9999 // NSC 23/16 Q1008
TAF LFRG 181400Z 1815/1824 12008KT CAVOK 
     TEMPO 1815/1824 4000 SHRA BKN060CB 
     PROB40 
     TEMPO 1815/1824 09015G30KT 4000 TSRA BKN060CB 
     PROB30 
     TEMPO 1815/1824 TSRAGR
       
LFRN 181900Z AUTO 33009KT CAVOK 23/19 Q1007 TEMPO VRB15G30KT 4000 TSRA BKN030CB
TAF LFRN 181700Z 1818/1918 36010KT CAVOK 
     TEMPO 1818/1903 5000 SHRA BKN050TCU 
     PROB40 
     TEMPO 1818/1903 VRB15G30KT 4000 TSRA BKN030CB 
     PROB30 
     TEMPO 1900/1903 TSRAGR 
     BECMG 1900/1903 21010KT BKN015 
     TEMPO 1904/1908 BKN010 
     BECMG 1906/1909 23008KT BKN020 
     TEMPO 1910/1918 5000 SHRA BKN020TCU 
     PROB30 
     TEMPO 1912/1918 21015G30KT 4000 TSRA BKN020CB
       
LFKF 181900Z AUTO 19005KT 150V220 CAVOK 22/17 Q1014 NOSIG
TAF LFKF 181400Z 1815/1915 20010KT CAVOK 
     TEMPO 1815/1817 27010KT 
     BECMG 1819/1821 VRB03KT 
     PROB40 
     TEMPO 1823/1906 BKN005 
     BECMG 1908/1910 22010KT
       
LFGJ 181900Z AUTO 16004KT CAVOK 24/15 Q1011
TAF LFGJ 181400Z 1815/1824 18005KT CAVOK
       
LFOB 181900Z AUTO 09006KT CAVOK 24/17 Q1009 NOSIG
TAF LFOB 181700Z 1818/1918 12007KT CAVOK 
     PROB30 
     TEMPO 1821/1823 VRB15G30KT 2000 TSRA BKN080CB 
     BECMG 1906/1908 20010KT 
     PROB30 
     TEMPO 1915/1917 30015G25KT 2000 SHRA BKN030CB
       
LFPN 181900Z AUTO 11007KT CAVOK 26/17 Q1009 NOSIG
TAF LFPN 181700Z 1818/1903 12010G20KT CAVOK 
     PROB40 
     TEMPO 1822/1903 VRB15G30KT -SHRA BKN050CB 
     PROB30 
     TEMPO 1823/1903 VRB20G40KT 1500 TSRAGR SCT040 BKN050CB
       
LFOT 181900Z AUTO 13004KT CAVOK 27/18 Q1008 NOSIG
TAF LFOT 181700Z 1818/1918 10008KT CAVOK 
     PROB40 
     TEMPO 1823/1903 VRB15G30KT 
     PROB30 
     TEMPO 1900/1902 SCT060CB 
     BECMG 1902/1904 23010KT 
     PROB30 
     TEMPO 1910/1918 24015G30KT -SHRA SCT040CB
       
LFOP 181900Z AUTO 11006KT CAVOK 24/18 Q1008 TEMPO VRB15G35KT 2000 TSRAGR BKN080CB
TAF LFOP 181700Z 1818/1918 06006KT CAVOK 
     PROB30 
     TEMPO 1820/1823 VRB15G35KT 2000 TSRAGR BKN080CB 
     BECMG 1904/1907 20010KT 
     TEMPO 1912/1915 3000 SHRA BKN030CB
       
LFOK 181900Z AUTO 07007KT CAVOK 25/15 Q1011 NOSIG
TAF LFOK 181700Z 1818/1918 08006KT CAVOK 
     BECMG 1906/1908 20010KT 
     PROB30 
     TEMPO 1915/1917 27015G30KT 2000 TSRAGR BKN080CB
       
LFPV 181900Z AUTO 10006KT CAVOK 26/17 Q1009 TEMPO BKN040TCU
TAF LFPV 181400Z 1815/1915 12010KT CAVOK 
     TEMPO 1820/1902 BKN040TCU 
     PROB30 
     TEMPO 1900/1904 3500 SHRA BKN050CB 
     TEMPO 1912/1915 4000 SHRA BKN035CB 
     PROB30 
     TEMPO 1913/1915 23015G25KT 2000 TSRA BKN030CB
       
LFMU 181900Z AUTO 10009KT 070V130 CAVOK 22/14 Q1012 NOSIG
TAF LFMU 181400Z 1815/1915 10010KT CAVOK 
     BECMG 1901/1904 04010KT 
     PROB30 
     TEMPO 1904/1908 BKN010 
     BECMG 1909/1911 16010KT
       
LFPM 181900Z AUTO 08006KT CAVOK 25/19 Q1009